Terminal Aerodrome Forecast
Issued by NWS

Home | Current Version | Previous Version | Text Only | Print | Product List | Glossary On
Versions: 1 2 3 4 5 6 7 8 9 10 11 12 13 14 15
000
FTAK31 PANC 231130
TAFADQ
TAF
PADQ 231130Z 2312/2412 VRB05KT P6SM VCSH BKN020 OVC050
     FM231300 11015KT 3SM -SN SCT008 OVC015
     FM231600 11018G28KT 1SM -SN BLSN SCT004 OVC008
     FM232100 11020G30KT 3SM -RASN BR SCT008 OVC015
     FM240000 18010KT 5SM -RA SCT015 OVC025
     FM240300 19011KT P6SM VCSH SCT015 OVC025=

USA.gov is the U.S. government's official web portal to all federal, state and local government web resources and services.